sensor_id;sensor_type;location;lat;lon;timestamp;pressure;altitude;pressure_sealevel;temperature;humidity
4012;BME280;2020;48.682;9.024;2023-04-26T00:01:41;96455.91;;;5.55;92.27
4012;BME280;2020;48.682;9.024;2023-04-26T00:04:07;96451.94;;;5.51;92.59
4012;BME280;2020;48.682;9.024;2023-04-26T00:06:35;96452.16;;;5.48;93.18
4012;BME280;2020;48.682;9.024;2023-04-26T00:09:01;96449.22;;;5.53;92.56
4012;BME280;2020;48.682;9.024;2023-04-26T00:11:26;96446.19;;;5.48;93.22
4012;BME280;2020;48.682;9.024;2023-04-26T00:13:52;96449.47;;;5.50;90.50
4012;BME280;2020;48.682;9.024;2023-04-26T00:16:17;96452.75;;;5.52;89.13
4012;BME280;2020;48.682;9.024;2023-04-26T00:18:44;96449.47;;;5.50;90.54
4012;BME280;2020;48.682;9.024;2023-04-26T00:21:10;96440.91;;;5.49;89.69
4012;BME280;2020;48.682;9.024;2023-04-26T00:23:35;96446.75;;;5.51;88.31
4012;BME280;2020;48.682;9.024;2023-04-26T00:26:01;96442.09;;;5.45;88.98
4012;BME280;2020;48.682;9.024;2023-04-26T00:28:28;96447.41;;;5.44;89.87
4012;BME280;2020;48.682;9.024;2023-04-26T00:30:53;96449.72;;;5.47;91.20
4012;BME280;2020;48.682;9.024;2023-04-26T00:33:22;96442.59;;;5.39;89.85
4012;BME280;2020;48.682;9.024;2023-04-26T00:35:47;96442.34;;;5.42;88.08
4012;BME280;2020;48.682;9.024;2023-04-26T00:38:12;96446.44;;;5.45;86.47
4012;BME280;2020;48.682;9.024;2023-04-26T00:40:37;96446.94;;;5.38;87.43
4012;BME280;2020;48.682;9.024;2023-04-26T00:43:04;96450.47;;;5.37;86.59
4012;BME280;2020;48.682;9.024;2023-04-26T00:45:29;96452.66;;;5.42;85.52
4012;BME280;2020;48.682;9.024;2023-04-26T00:47:55;96449.38;;;5.40;85.56
4012;BME280;2020;48.682;9.024;2023-04-26T00:50:21;96450.72;;;5.34;87.12
4012;BME280;2020;48.682;9.024;2023-04-26T00:52:46;96448.72;;;5.26;86.08
4012;BME280;2020;48.682;9.024;2023-04-26T00:55:12;96451.09;;;5.18;86.36
4012;BME280;2020;48.682;9.024;2023-04-26T00:57:38;96457.22;;;5.17;86.12
4012;BME280;2020;48.682;9.024;2023-04-26T01:00:04;96452.28;;;5.14;87.17
4012;BME280;2020;48.682;9.024;2023-04-26T01:02:30;96454.88;;;5.14;87.44
4012;BME280;2020;48.682;9.024;2023-04-26T01:04:56;96456.50;;;5.15;88.46
4012;BME280;2020;48.682;9.024;2023-04-26T01:07:21;96466.00;;;5.15;88.21
4012;BME280;2020;48.682;9.024;2023-04-26T01:09:47;96463.81;;;5.10;88.02
4012;BME280;2020;48.682;9.024;2023-04-26T01:12:13;96458.63;;;5.10;87.47
4012;BME280;2020;48.682;9.024;2023-04-26T01:14:39;96461.09;;;5.11;86.64
4012;BME280;2020;48.682;9.024;2023-04-26T01:17:05;96457.00;;;5.09;88.15
4012;BME280;2020;48.682;9.024;2023-04-26T01:19:30;96453.03;;;5.05;86.53
4012;BME280;2020;48.682;9.024;2023-04-26T01:21:56;96444.81;;;5.00;86.29
4012;BME280;2020;48.682;9.024;2023-04-26T01:24:21;96450.34;;;4.95;85.43
4012;BME280;2020;48.682;9.024;2023-04-26T01:26:47;96449.63;;;4.93;85.85
4012;BME280;2020;48.682;9.024;2023-04-26T01:29:16;96446.81;;;4.96;86.30
4012;BME280;2020;48.682;9.024;2023-04-26T01:31:42;96451.41;;;4.92;85.48
4012;BME280;2020;48.682;9.024;2023-04-26T01:34:07;96444.03;;;4.88;84.82
4012;BME280;2020;48.682;9.024;2023-04-26T01:36:33;96444.16;;;4.86;83.65
4012;BME280;2020;48.682;9.024;2023-04-26T01:38:58;96451.91;;;4.86;85.28
4012;BME280;2020;48.682;9.024;2023-04-26T01:41:23;96448.84;;;4.81;85.90
4012;BME280;2020;48.682;9.024;2023-04-26T01:43:49;96448.63;;;4.84;86.49
4012;BME280;2020;48.682;9.024;2023-04-26T01:46:14;96456.22;;;4.86;87.16
4012;BME280;2020;48.682;9.024;2023-04-26T01:48:39;96458.69;;;4.87;87.33
4012;BME280;2020;48.682;9.024;2023-04-26T01:51:05;96450.50;;;4.82;86.31
4012;BME280;2020;48.682;9.024;2023-04-26T01:53:30;96440.19;;;4.82;85.84
4012;BME280;2020;48.682;9.024;2023-04-26T01:55:56;96444.91;;;4.65;83.29
4012;BME280;2020;48.682;9.024;2023-04-26T01:58:21;96439.75;;;4.65;85.18
4012;BME280;2020;48.682;9.024;2023-04-26T02:00:46;96436.22;;;4.66;84.34
4012;BME280;2020;48.682;9.024;2023-04-26T02:03:11;96437.84;;;4.67;85.65
4012;BME280;2020;48.682;9.024;2023-04-26T02:05:37;96434.34;;;4.68;86.96
4012;BME280;2020;48.682;9.024;2023-04-26T02:08:02;96437.84;;;4.67;87.08
4012;BME280;2020;48.682;9.024;2023-04-26T02:10:28;96443.25;;;4.64;87.27
4012;BME280;2020;48.682;9.024;2023-04-26T02:12:53;96433.63;;;4.66;87.94
4012;BME280;2020;48.682;9.024;2023-04-26T02:15:19;96433.16;;;4.61;86.11
4012;BME280;2020;48.682;9.024;2023-04-26T02:17:45;96443.13;;;4.54;85.62
4012;BME280;2020;48.682;9.024;2023-04-26T02:20:11;96445.81;;;4.53;85.61
4012;BME280;2020;48.682;9.024;2023-04-26T02:22:36;96437.13;;;4.54;87.92
4012;BME280;2020;48.682;9.024;2023-04-26T02:25:01;96440.88;;;4.50;88.27
4012;BME280;2020;48.682;9.024;2023-04-26T02:27:27;96443.00;;;4.45;87.65
4012;BME280;2020;48.682;9.024;2023-04-26T02:29:52;96440.78;;;4.40;88.65
4012;BME280;2020;48.682;9.024;2023-04-26T02:32:17;96448.63;;;4.38;88.61
4012;BME280;2020;48.682;9.024;2023-04-26T02:34:43;96450.50;;;4.36;88.56
4012;BME280;2020;48.682;9.024;2023-04-26T02:37:08;96449.09;;;4.32;89.49
4012;BME280;2020;48.682;9.024;2023-04-26T02:39:34;96451.81;;;4.31;89.89
4012;BME280;2020;48.682;9.024;2023-04-26T02:41:59;96458.00;;;4.28;90.02
4012;BME280;2020;48.682;9.024;2023-04-26T02:44:28;96455.78;;;4.23;88.99
4012;BME280;2020;48.682;9.024;2023-04-26T02:46:53;96451.09;;;4.17;88.72
4012;BME280;2020;48.682;9.024;2023-04-26T02:49:18;96452.97;;;4.15;88.74
4012;BME280;2020;48.682;9.024;2023-04-26T02:51:43;96450.94;;;4.07;88.72
4012;BME280;2020;48.682;9.024;2023-04-26T02:54:09;96454.59;;;4.05;89.86
4012;BME280;2020;48.682;9.024;2023-04-26T02:56:34;96457.97;;;4.05;90.06
4012;BME280;2020;48.682;9.024;2023-04-26T02:58:59;96456.34;;;4.04;90.77
4012;BME280;2020;48.682;9.024;2023-04-26T03:01:25;96452.34;;;4.12;89.91
4012;BME280;2020;48.682;9.024;2023-04-26T03:03:50;96458.34;;;4.12;90.52
4012;BME280;2020;48.682;9.024;2023-04-26T03:06:16;96457.50;;;4.12;89.85
4012;BME280;2020;48.682;9.024;2023-04-26T03:08:41;96461.63;;;4.14;90.61
4012;BME280;2020;48.682;9.024;2023-04-26T03:11:06;96457.75;;;4.08;90.02
4012;BME280;2020;48.682;9.024;2023-04-26T03:13:32;96458.34;;;4.12;89.58
4012;BME280;2020;48.682;9.024;2023-04-26T03:15:57;96454.22;;;4.09;89.58
4012;BME280;2020;48.682;9.024;2023-04-26T03:18:22;96455.41;;;4.05;89.84
4012;BME280;2020;48.682;9.024;2023-04-26T03:20:48;96460.44;;;4.07;89.63
4012;BME280;2020;48.682;9.024;2023-04-26T03:23:14;96458.44;;;3.99;89.17
4012;BME280;2020;48.682;9.024;2023-04-26T03:25:39;96458.44;;;3.99;89.93
4012;BME280;2020;48.682;9.024;2023-04-26T03:28:05;96453.28;;;3.99;90.26
4012;BME280;2020;48.682;9.024;2023-04-26T03:30:30;96449.28;;;3.95;90.37
4012;BME280;2020;48.682;9.024;2023-04-26T03:32:55;96448.59;;;3.93;90.67
4012;BME280;2020;48.682;9.024;2023-04-26T03:35:21;96447.19;;;3.89;91.70
4012;BME280;2020;48.682;9.024;2023-04-26T03:37:46;96449.28;;;3.84;92.10
4012;BME280;2020;48.682;9.024;2023-04-26T03:40:12;96436.03;;;3.77;92.20
4012;BME280;2020;48.682;9.024;2023-04-26T03:42:37;96441.88;;;3.79;91.98
4012;BME280;2020;48.682;9.024;2023-04-26T03:45:03;96438.59;;;3.77;92.61
4012;BME280;2020;48.682;9.024;2023-04-26T03:47:29;96443.16;;;3.73;91.93
4012;BME280;2020;48.682;9.024;2023-04-26T03:49:55;96443.16;;;3.73;92.48
4012;BME280;2020;48.682;9.024;2023-04-26T03:52:20;96451.59;;;3.75;92.78
4012;BME280;2020;48.682;9.024;2023-04-26T03:54:45;96436.59;;;3.69;91.59
4012;BME280;2020;48.682;9.024;2023-04-26T03:57:11;96442.78;;;3.66;92.03
4012;BME280;2020;48.682;9.024;2023-04-26T03:59:36;96444.28;;;3.58;91.40
4012;BME280;2020;48.682;9.024;2023-04-26T04:02:02;96443.31;;;3.47;91.42
4012;BME280;2020;48.682;9.024;2023-04-26T04:04:27;96449.28;;;3.48;91.52
4012;BME280;2020;48.682;9.024;2023-04-26T04:06:52;96456.06;;;3.49;91.97
4012;BME280;2020;48.682;9.024;2023-04-26T04:09:17;96456.50;;;3.43;92.32
4012;BME280;2020;48.682;9.024;2023-04-26T04:11:43;96448.91;;;3.41;91.93
4012;BME280;2020;48.682;9.024;2023-04-26T04:14:08;96451.22;;;3.33;91.63
4012;BME280;2020;48.682;9.024;2023-04-26T04:16:33;96447.72;;;3.34;91.80
4012;BME280;2020;48.682;9.024;2023-04-26T04:18:58;96443.38;;;3.34;91.75
4012;BME280;2020;48.682;9.024;2023-04-26T04:21:24;96446.66;;;3.36;92.28
4012;BME280;2020;48.682;9.024;2023-04-26T04:23:49;96445.84;;;3.36;91.66
4012;BME280;2020;48.682;9.024;2023-04-26T04:26:15;96449.78;;;3.29;91.79
4012;BME280;2020;48.682;9.024;2023-04-26T04:28:41;96446.72;;;3.24;91.60
4012;BME280;2020;48.682;9.024;2023-04-26T04:31:07;96460.28;;;3.26;92.53
4012;BME280;2020;48.682;9.024;2023-04-26T04:33:35;96460.06;;;3.29;92.45
4012;BME280;2020;48.682;9.024;2023-04-26T04:36:00;96460.41;;;3.24;92.16
4012;BME280;2020;48.682;9.024;2023-04-26T04:38:25;96456.78;;;3.27;92.60
4012;BME280;2020;48.682;9.024;2023-04-26T04:40:51;96460.28;;;3.26;92.37
4012;BME280;2020;48.682;9.024;2023-04-26T04:43:16;96462.75;;;3.27;92.88
4012;BME280;2020;48.682;9.024;2023-04-26T04:45:42;96463.56;;;3.28;92.90
4012;BME280;2020;48.682;9.024;2023-04-26T04:48:07;96454.91;;;3.29;93.14
4012;BME280;2020;48.682;9.024;2023-04-26T04:50:33;96456.56;;;3.30;92.99
4012;BME280;2020;48.682;9.024;2023-04-26T04:53:00;96466.00;;;3.42;92.53
4012;BME280;2020;48.682;9.024;2023-04-26T04:55:25;96468.78;;;3.39;92.75
4012;BME280;2020;48.682;9.024;2023-04-26T04:57:50;96466.22;;;3.39;92.89
4012;BME280;2020;48.682;9.024;2023-04-26T05:00:16;96467.88;;;3.40;93.00
4012;BME280;2020;48.682;9.024;2023-04-26T05:02:41;96474.66;;;3.41;93.65
4012;BME280;2020;48.682;9.024;2023-04-26T05:05:07;96470.22;;;3.43;93.67
4012;BME280;2020;48.682;9.024;2023-04-26T05:07:33;96476.56;;;3.50;93.53
4012;BME280;2020;48.682;9.024;2023-04-26T05:09:59;96472.34;;;3.49;93.59
4012;BME280;2020;48.682;9.024;2023-04-26T05:12:25;96475.84;;;3.48;93.32
4012;BME280;2020;48.682;9.024;2023-04-26T05:14:50;96475.63;;;3.51;93.76
4012;BME280;2020;48.682;9.024;2023-04-26T05:17:15;96470.25;;;3.55;93.42
4012;BME280;2020;48.682;9.024;2023-04-26T05:19:41;96481.97;;;3.59;94.02
4012;BME280;2020;48.682;9.024;2023-04-26T05:22:06;96485.47;;;3.58;93.46
4012;BME280;2020;48.682;9.024;2023-04-26T05:24:31;96495.09;;;3.67;94.06
4012;BME280;2020;48.682;9.024;2023-04-26T05:26:57;96500.03;;;3.70;93.30
4012;BME280;2020;48.682;9.024;2023-04-26T05:29:23;96494.22;;;3.79;92.30
4012;BME280;2020;48.682;9.024;2023-04-26T05:31:48;96492.78;;;3.75;92.64
4012;BME280;2020;48.682;9.024;2023-04-26T05:34:14;96503.09;;;3.75;92.43
4012;BME280;2020;48.682;9.024;2023-04-26T05:36:39;96506.16;;;3.80;93.56
4012;BME280;2020;48.682;9.024;2023-04-26T05:39:04;96508.97;;;3.89;93.44
4012;BME280;2020;48.682;9.024;2023-04-26T05:41:30;96505.03;;;3.96;93.21
4012;BME280;2020;48.682;9.024;2023-04-26T05:43:56;96507.84;;;4.04;92.52
4012;BME280;2020;48.682;9.024;2023-04-26T05:46:21;96514.41;;;4.08;92.28
4012;BME280;2020;48.682;9.024;2023-04-26T05:48:46;96510.91;;;4.09;92.12
4012;BME280;2020;48.682;9.024;2023-04-26T05:51:12;96506.59;;;4.10;92.56
4012;BME280;2020;48.682;9.024;2023-04-26T05:53:37;96516.44;;;4.16;93.05
4012;BME280;2020;48.682;9.024;2023-04-26T05:56:02;96513.28;;;4.24;92.49
4012;BME280;2020;48.682;9.024;2023-04-26T05:58:28;96502.28;;;4.33;93.58
4012;BME280;2020;48.682;9.024;2023-04-26T06:00:53;96504.84;;;4.45;92.59
4012;BME280;2020;48.682;9.024;2023-04-26T06:03:18;96508.88;;;4.72;93.18
4012;BME280;2020;48.682;9.024;2023-04-26T06:05:44;96502.03;;;5.05;91.10
4012;BME280;2020;48.682;9.024;2023-04-26T06:08:09;96510.72;;;5.04;86.37
4012;BME280;2020;48.682;9.024;2023-04-26T06:10:34;96515.97;;;5.13;84.89
4012;BME280;2020;48.682;9.024;2023-04-26T06:13:00;96521.09;;;5.36;85.95
4012;BME280;2020;48.682;9.024;2023-04-26T06:15:25;96514.19;;;5.25;83.25
4012;BME280;2020;48.682;9.024;2023-04-26T06:17:51;96521.25;;;5.23;82.31
4012;BME280;2020;48.682;9.024;2023-04-26T06:20:17;96514.75;;;5.29;82.60
4012;BME280;2020;48.682;9.024;2023-04-26T06:22:42;96516.50;;;5.40;82.05
4012;BME280;2020;48.682;9.024;2023-04-26T06:25:08;96522.09;;;5.56;80.29
4012;BME280;2020;48.682;9.024;2023-04-26T06:27:33;96523.16;;;5.54;78.92
4012;BME280;2020;48.682;9.024;2023-04-26T06:29:58;96522.91;;;5.57;77.66
4012;BME280;2020;48.682;9.024;2023-04-26T06:32:24;96526.34;;;5.46;79.39
4012;BME280;2020;48.682;9.024;2023-04-26T06:34:49;96528.19;;;5.55;78.95
4012;BME280;2020;48.682;9.024;2023-04-26T06:37:14;96531.03;;;5.85;77.75
4012;BME280;2020;48.682;9.024;2023-04-26T06:39:40;96528.56;;;5.83;74.57
4012;BME280;2020;48.682;9.024;2023-04-26T06:42:05;96523.03;;;5.88;76.91
4012;BME280;2020;48.682;9.024;2023-04-26T06:44:30;96526.91;;;5.82;75.82
4012;BME280;2020;48.682;9.024;2023-04-26T06:46:56;96530.00;;;5.76;75.47
4012;BME280;2020;48.682;9.024;2023-04-26T06:49:22;96523.09;;;6.09;75.34
4012;BME280;2020;48.682;9.024;2023-04-26T06:51:47;96527.53;;;6.50;76.97
4012;BME280;2020;48.682;9.024;2023-04-26T06:54:13;96521.31;;;6.62;68.73
4012;BME280;2020;48.682;9.024;2023-04-26T06:56:38;96519.94;;;6.89;67.97
4012;BME280;2020;48.682;9.024;2023-04-26T06:59:05;96518.47;;;6.96;65.75
4012;BME280;2020;48.682;9.024;2023-04-26T07:01:32;96514.97;;;7.17;68.67
4012;BME280;2020;48.682;9.024;2023-04-26T07:04:01;96517.44;;;7.28;67.07
4012;BME280;2020;48.682;9.024;2023-04-26T07:06:28;96518.47;;;7.47;66.55
4012;BME280;2020;48.682;9.024;2023-04-26T07:08:53;96512.31;;;7.48;61.66
4012;BME280;2020;48.682;9.024;2023-04-26T07:11:19;96506.44;;;7.75;64.46
4012;BME280;2020;48.682;9.024;2023-04-26T07:13:45;96506.88;;;7.61;63.57
4012;BME280;2020;48.682;9.024;2023-04-26T07:16:10;96506.16;;;7.39;61.69
4012;BME280;2020;48.682;9.024;2023-04-26T07:18:35;96511.38;;;7.49;62.46
4012;BME280;2020;48.682;9.024;2023-04-26T07:21:00;96502.09;;;7.46;59.15
4012;BME280;2020;48.682;9.024;2023-04-26T07:23:28;96501.28;;;7.56;60.95
4012;BME280;2020;48.682;9.024;2023-04-26T07:25:53;96501.56;;;7.82;63.62
4012;BME280;2020;48.682;9.024;2023-04-26T07:28:18;96488.72;;;7.90;61.69
4012;BME280;2020;48.682;9.024;2023-04-26T07:30:43;96490.06;;;8.14;61.93
4012;BME280;2020;48.682;9.024;2023-04-26T07:33:09;96489.72;;;8.37;60.68
4012;BME280;2020;48.682;9.024;2023-04-26T07:35:34;96490.28;;;8.31;59.55
4012;BME280;2020;48.682;9.024;2023-04-26T07:38:00;96494.53;;;8.32;65.29
4012;BME280;2020;48.682;9.024;2023-04-26T07:40:25;96491.34;;;8.58;66.37
4012;BME280;2020;48.682;9.024;2023-04-26T07:42:53;96492.44;;;8.65;61.87
4012;BME280;2020;48.682;9.024;2023-04-26T07:45:18;96493.81;;;8.49;62.20
4012;BME280;2020;48.682;9.024;2023-04-26T07:47:44;96486.63;;;8.24;62.74
4012;BME280;2020;48.682;9.024;2023-04-26T07:50:09;96491.84;;;8.14;62.07
4012;BME280;2020;48.682;9.024;2023-04-26T07:52:35;96491.84;;;8.04;61.34
4012;BME280;2020;48.682;9.024;2023-04-26T07:55:00;96493.59;;;8.13;61.21
4012;BME280;2020;48.682;9.024;2023-04-26T07:57:26;96491.97;;;8.12;67.58
4012;BME280;2020;48.682;9.024;2023-04-26T07:59:51;96497.13;;;8.32;65.34
4012;BME280;2020;48.682;9.024;2023-04-26T08:02:16;96495.84;;;8.56;75.08
4012;BME280;2020;48.682;9.024;2023-04-26T08:04:47;96492.28;;;7.99;61.07
4012;BME280;2020;48.682;9.024;2023-04-26T08:07:14;96498.00;;;8.03;70.75
4012;BME280;2020;48.682;9.024;2023-04-26T08:09:39;96497.41;;;8.29;66.63
4012;BME280;2020;48.682;9.024;2023-04-26T08:12:05;96499.00;;;8.49;63.67
4012;BME280;2020;48.682;9.024;2023-04-26T08:14:30;96498.69;;;8.72;68.32
4012;BME280;2020;48.682;9.024;2023-04-26T08:16:55;96506.97;;;9.04;68.79
4012;BME280;2020;48.682;9.024;2023-04-26T08:19:20;96504.06;;;8.89;67.79
4012;BME280;2020;48.682;9.024;2023-04-26T08:21:46;96509.00;;;8.82;64.48
4012;BME280;2020;48.682;9.024;2023-04-26T08:24:11;96506.78;;;8.87;66.78
4012;BME280;2020;48.682;9.024;2023-04-26T08:26:37;96506.06;;;8.67;62.28
4012;BME280;2020;48.682;9.024;2023-04-26T08:29:02;96514.25;;;8.62;60.89
4012;BME280;2020;48.682;9.024;2023-04-26T08:31:27;96507.75;;;8.39;59.36
4012;BME280;2020;48.682;9.024;2023-04-26T08:33:53;96506.13;;;8.28;59.91
4012;BME280;2020;48.682;9.024;2023-04-26T08:36:18;96503.13;;;8.23;59.03
4012;BME280;2020;48.682;9.024;2023-04-26T08:38:44;96507.53;;;8.12;60.27
4012;BME280;2020;48.682;9.024;2023-04-26T08:41:12;96512.72;;;8.12;59.56
4012;BME280;2020;48.682;9.024;2023-04-26T08:43:39;96517.59;;;8.35;66.19
4012;BME280;2020;48.682;9.024;2023-04-26T08:46:06;96517.00;;;8.41;62.18
4012;BME280;2020;48.682;9.024;2023-04-26T08:48:35;96510.59;;;8.45;62.18
4012;BME280;2020;48.682;9.024;2023-04-26T08:51:01;96513.75;;;8.39;59.82
4012;BME280;2020;48.682;9.024;2023-04-26T08:53:28;96515.09;;;8.43;62.44
4012;BME280;2020;48.682;9.024;2023-04-26T08:55:56;96512.22;;;8.46;64.79
4012;BME280;2020;48.682;9.024;2023-04-26T08:58:21;96512.38;;;8.35;62.58
4012;BME280;2020;48.682;9.024;2023-04-26T09:00:49;96516.22;;;8.31;57.48
4012;BME280;2020;48.682;9.024;2023-04-26T09:03:14;96524.94;;;8.49;65.66
4012;BME280;2020;48.682;9.024;2023-04-26T09:05:40;96520.44;;;8.52;62.28
4012;BME280;2020;48.682;9.024;2023-04-26T09:08:14;96519.19;;;8.56;61.36
4012;BME280;2020;48.682;9.024;2023-04-26T09:10:40;96518.53;;;8.44;59.15
4012;BME280;2020;48.682;9.024;2023-04-26T09:13:06;96518.94;;;8.39;59.69
4012;BME280;2020;48.682;9.024;2023-04-26T09:15:31;96514.03;;;8.36;56.97
4012;BME280;2020;48.682;9.024;2023-04-26T09:18:15;96509.28;;;8.22;61.65
4012;BME280;2020;48.682;9.024;2023-04-26T09:20:40;96504.22;;;8.30;60.81
4012;BME280;2020;48.682;9.024;2023-04-26T09:23:07;96503.00;;;8.82;60.03
4012;BME280;2020;48.682;9.024;2023-04-26T09:25:33;96498.78;;;9.09;58.81
4012;BME280;2020;48.682;9.024;2023-04-26T09:28:03;96495.41;;;9.62;62.53
4012;BME280;2020;48.682;9.024;2023-04-26T09:30:42;96496.75;;;9.66;59.97
4012;BME280;2020;48.682;9.024;2023-04-26T09:33:07;96495.09;;;9.29;56.35
4012;BME280;2020;48.682;9.024;2023-04-26T09:35:38;96485.63;;;9.56;60.98
4012;BME280;2020;48.682;9.024;2023-04-26T09:40:38;96488.53;;;9.71;55.28
4012;BME280;2020;48.682;9.024;2023-04-26T09:43:10;96485.53;;;9.84;58.30
4012;BME280;2020;48.682;9.024;2023-04-26T09:50:43;96491.19;;;8.97;59.15
4012;BME280;2020;48.682;9.024;2023-04-26T09:53:25;96497.75;;;8.54;58.79
4012;BME280;2020;48.682;9.024;2023-04-26T09:55:52;96498.16;;;8.59;60.53
4012;BME280;2020;48.682;9.024;2023-04-26T09:58:18;96496.53;;;8.58;57.87
4012;BME280;2020;48.682;9.024;2023-04-26T10:00:45;96494.63;;;8.40;57.04
4012;BME280;2020;48.682;9.024;2023-04-26T10:03:14;96491.63;;;8.45;56.40
4012;BME280;2020;48.682;9.024;2023-04-26T10:05:41;96493.72;;;8.22;54.74
4012;BME280;2020;48.682;9.024;2023-04-26T10:08:06;96482.34;;;8.42;57.27
4012;BME280;2020;48.682;9.024;2023-04-26T10:10:32;96490.94;;;8.53;55.32
4012;BME280;2020;48.682;9.024;2023-04-26T10:12:58;96483.09;;;8.72;56.22
4012;BME280;2020;48.682;9.024;2023-04-26T10:15:25;96480.03;;;8.87;55.91
4012;BME280;2020;48.682;9.024;2023-04-26T10:17:50;96484.84;;;9.10;58.99
4012;BME280;2020;48.682;9.024;2023-04-26T10:20:17;96476.06;;;9.11;57.08
4012;BME280;2020;48.682;9.024;2023-04-26T10:22:50;96471.34;;;9.24;55.46
4012;BME280;2020;48.682;9.024;2023-04-26T10:25:17;96471.28;;;9.34;54.45
4012;BME280;2020;48.682;9.024;2023-04-26T10:30:09;96468.75;;;9.60;53.63
4012;BME280;2020;48.682;9.024;2023-04-26T10:35:22;96467.44;;;9.38;55.27
4012;BME280;2020;48.682;9.024;2023-04-26T10:40:28;96470.31;;;9.17;56.05
4012;BME280;2020;48.682;9.024;2023-04-26T10:45:42;96476.84;;;9.21;52.58
4012;BME280;2020;48.682;9.024;2023-04-26T10:48:17;96472.16;;;9.25;54.36
4012;BME280;2020;48.682;9.024;2023-04-26T10:53:26;96464.69;;;9.58;52.42
4012;BME280;2020;48.682;9.024;2023-04-26T10:55:51;96462.38;;;9.73;52.77
4012;BME280;2020;48.682;9.024;2023-04-26T10:58:40;96456.81;;;9.68;56.63
4012;BME280;2020;48.682;9.024;2023-04-26T11:01:15;96454.38;;;9.66;51.37
4012;BME280;2020;48.682;9.024;2023-04-26T11:03:42;96454.56;;;9.73;51.94
4012;BME280;2020;48.682;9.024;2023-04-26T11:06:08;96457.84;;;9.75;53.35
4012;BME280;2020;48.682;9.024;2023-04-26T11:08:34;96458.78;;;9.74;50.50
4012;BME280;2020;48.682;9.024;2023-04-26T11:13:26;96446.63;;;9.74;56.92
4012;BME280;2020;48.682;9.024;2023-04-26T11:15:52;96442.09;;;9.94;53.06
4012;BME280;2020;48.682;9.024;2023-04-26T11:18:19;96449.72;;;10.22;52.98
4012;BME280;2020;48.682;9.024;2023-04-26T11:20:45;96449.22;;;10.19;55.36
4012;BME280;2020;48.682;9.024;2023-04-26T11:23:10;96449.22;;;10.45;51.71
4012;BME280;2020;48.682;9.024;2023-04-26T11:25:38;96439.41;;;10.39;51.25
4012;BME280;2020;48.682;9.024;2023-04-26T11:28:04;96432.13;;;10.77;54.78
4012;BME280;2020;48.682;9.024;2023-04-26T11:30:31;96427.47;;;10.97;54.57
4012;BME280;2020;48.682;9.024;2023-04-26T11:33:00;96411.06;;;11.14;52.07
4012;BME280;2020;48.682;9.024;2023-04-26T11:35:27;96417.53;;;11.01;53.02
4012;BME280;2020;48.682;9.024;2023-04-26T11:37:57;96401.25;;;10.91;49.91
4012;BME280;2020;48.682;9.024;2023-04-26T11:40:22;96409.34;;;10.79;47.79
4012;BME280;2020;48.682;9.024;2023-04-26T11:42:51;96401.25;;;10.91;52.65
4012;BME280;2020;48.682;9.024;2023-04-26T11:45:16;96398.34;;;11.02;50.93
4012;BME280;2020;48.682;9.024;2023-04-26T11:47:42;96398.53;;;11.09;57.65
4012;BME280;2020;48.682;9.024;2023-04-26T11:50:08;96388.09;;;11.09;53.16
4012;BME280;2020;48.682;9.024;2023-04-26T11:52:34;96389.22;;;11.06;49.53
4012;BME280;2020;48.682;9.024;2023-04-26T11:55:04;96386.28;;;11.01;46.93
4012;BME280;2020;48.682;9.024;2023-04-26T11:57:30;96386.97;;;11.11;47.81
4012;BME280;2020;48.682;9.024;2023-04-26T12:00:13;96388.25;;;11.16;50.81
4012;BME280;2020;48.682;9.024;2023-04-26T12:02:48;96380.31;;;11.50;49.10
4012;BME280;2020;48.682;9.024;2023-04-26T12:05:28;96379.97;;;11.78;46.90
4012;BME280;2020;48.682;9.024;2023-04-26T12:07:58;96376.88;;;11.83;46.65
4012;BME280;2020;48.682;9.024;2023-04-26T12:10:24;96375.75;;;11.27;49.99
4012;BME280;2020;48.682;9.024;2023-04-26T12:12:51;96383.38;;;11.12;48.69
4012;BME280;2020;48.682;9.024;2023-04-26T12:15:17;96387.00;;;11.28;52.37
4012;BME280;2020;48.682;9.024;2023-04-26T12:18:06;96388.13;;;11.17;49.46
4012;BME280;2020;48.682;9.024;2023-04-26T12:20:34;96390.91;;;11.74;58.35
4012;BME280;2020;48.682;9.024;2023-04-26T12:25:30;96379.84;;;11.30;46.51
4012;BME280;2020;48.682;9.024;2023-04-26T12:27:56;96378.38;;;11.36;48.25
4012;BME280;2020;48.682;9.024;2023-04-26T12:30:21;96381.78;;;11.45;49.09
4012;BME280;2020;48.682;9.024;2023-04-26T12:32:46;96383.56;;;11.69;50.01
4012;BME280;2020;48.682;9.024;2023-04-26T12:35:12;96387.47;;;11.48;47.61
4012;BME280;2020;48.682;9.024;2023-04-26T12:37:37;96383.44;;;11.54;49.62
4012;BME280;2020;48.682;9.024;2023-04-26T12:40:03;96390.56;;;11.77;48.65
4012;BME280;2020;48.682;9.024;2023-04-26T12:42:28;96378.84;;;11.81;46.97
4012;BME280;2020;48.682;9.024;2023-04-26T12:44:53;96367.91;;;11.85;47.13
4012;BME280;2020;48.682;9.024;2023-04-26T12:47:25;96371.31;;;11.94;45.81
4012;BME280;2020;48.682;9.024;2023-04-26T12:49:50;96368.72;;;12.03;48.36
4012;BME280;2020;48.682;9.024;2023-04-26T12:52:16;96372.31;;;12.02;49.74
4012;BME280;2020;48.682;9.024;2023-04-26T12:54:41;96363.50;;;12.03;46.24
4012;BME280;2020;48.682;9.024;2023-04-26T12:57:07;96372.94;;;11.95;49.06
4012;BME280;2020;48.682;9.024;2023-04-26T12:59:32;96370.34;;;12.04;48.59
4012;BME280;2020;48.682;9.024;2023-04-26T13:01:57;96371.81;;;11.90;45.09
4012;BME280;2020;48.682;9.024;2023-04-26T13:04:22;96368.72;;;11.86;46.92
4012;BME280;2020;48.682;9.024;2023-04-26T13:06:48;96368.38;;;11.97;45.59
4012;BME280;2020;48.682;9.024;2023-04-26T13:09:13;96361.56;;;11.80;44.99
4012;BME280;2020;48.682;9.024;2023-04-26T13:11:39;96365.09;;;12.20;47.79
4012;BME280;2020;48.682;9.024;2023-04-26T13:14:05;96357.56;;;12.25;45.34
4012;BME280;2020;48.682;9.024;2023-04-26T13:16:32;96354.81;;;12.19;45.32
4012;BME280;2020;48.682;9.024;2023-04-26T13:18:57;96356.00;;;12.08;48.50
4012;BME280;2020;48.682;9.024;2023-04-26T13:21:23;96358.44;;;12.49;45.85
4012;BME280;2020;48.682;9.024;2023-04-26T13:23:48;96355.84;;;12.49;46.80
4012;BME280;2020;48.682;9.024;2023-04-26T13:26:13;96353.84;;;12.60;45.43
4012;BME280;2020;48.682;9.024;2023-04-26T13:28:41;96345.97;;;12.68;46.00
4012;BME280;2020;48.682;9.024;2023-04-26T13:31:06;96349.25;;;12.93;50.20
4012;BME280;2020;48.682;9.024;2023-04-26T13:33:32;96351.16;;;12.76;46.26
4012;BME280;2020;48.682;9.024;2023-04-26T13:35:57;96348.66;;;12.83;44.82
4012;BME280;2020;48.682;9.024;2023-04-26T13:38:22;96356.22;;;13.01;48.87
4012;BME280;2020;48.682;9.024;2023-04-26T13:40:48;96357.91;;;12.94;45.54
4012;BME280;2020;48.682;9.024;2023-04-26T13:43:13;96350.97;;;12.78;45.44
4012;BME280;2020;48.682;9.024;2023-04-26T13:45:38;96354.63;;;12.68;47.27
4012;BME280;2020;48.682;9.024;2023-04-26T13:48:03;96352.88;;;12.52;47.00
4012;BME280;2020;48.682;9.024;2023-04-26T13:50:29;96347.69;;;12.44;47.42